Aeroporto :
LOGIN :

Iscrizione | Disclaimer

   EN    FR    IT 

 










Sommario :    VFR   VFR Marginale   IFR   IFR Intensivo   IFR Molto Intensivo
Visibilità : 
Base nubi : 
>= 8 km
>= 3000ft
5 / 8 km
1000 / 3000 ft
1500m / 5 km
500 / 1000 ft
800 / 1500m
200 / 500 ft
< 800m
< 200 ft
Simboli :   Temporali  Nebbia  Neve Forte  Precipitazioni Forti  Vento > 20 kt
SIGMETs :   Varie  Temporali  Ghiacco  Turbolenza  Onda orograficha  Ceneri Vulcaniche






- Altitudine del aeroporto : 49 ft
- Codice IATA : SEN


EGMC - Southend

ULTIMO METAR :
  • 170950Z 00000KT 9000 NSC 03/03 Q1011

METARs OBSOLETI :
  • 170920Z 00000KT 9000 NSC 03/03 Q1011
  • 170850Z 26002KT 9000 NSC 02/02 Q1010
  • 170820Z 26002KT 9000 NSC 02/02 Q1010
  • 170750Z 28002KT 9000 MIFG NSC 01/01 Q1010

TAF TAF EGMC
Valido dal 17 a 09 ore il 17 a 18 ore UTC


170805Z 1709/1718 04003KT 7000 FEW040
PROB40
TEMPO 1709/1710 4000 MIFG BR
BECMG 1710/1712 9999



MetMap, La meteo Aeronautica in un colpo d'occhio ! - Copyright ORBIFLY Dicembre 2007 - Disclaimer

ORBIFLY MET'MAP TEAM :

Programmazione e sviluppo : Alexandra Zaïnal
Concezione e sviluppo : Baudouin d'Aumeries
Co-Programmazione e sviluppo : Marc-Olivier Méhu
Supporto tecnico e logistico : Manuel Goepfert
Aiuto per la traduzione : Arnaldo La Scala

Contatto : metmap@orbifly.com




FONTI E CREDITI :

   NOAA